createdAt,value
2023-05-22T00:01:18.963Z,57.02
2023-05-22T00:03:49.580Z,57.28
2023-05-22T00:06:20.863Z,56.99
2023-05-22T00:08:51.426Z,57.22
2023-05-22T00:11:21.804Z,57.09
2023-05-22T00:13:52.344Z,57.17
2023-05-22T00:16:22.998Z,57.06
2023-05-22T00:18:53.351Z,56.98
2023-05-22T00:21:23.780Z,56.99
2023-05-22T00:23:54.134Z,57.10
2023-05-22T00:26:27.374Z,57.03
2023-05-22T00:28:58.012Z,57.07
2023-05-22T00:31:28.525Z,57.07
2023-05-22T00:33:58.857Z,56.77
2023-05-22T00:36:29.586Z,56.98
2023-05-22T00:38:59.985Z,56.79
2023-05-22T00:41:30.901Z,56.87
2023-05-22T00:44:01.218Z,56.88
2023-05-22T00:46:31.723Z,56.75
2023-05-22T00:49:02.143Z,56.95
2023-05-22T00:51:32.969Z,56.97
2023-05-22T00:54:03.540Z,56.94
2023-05-22T00:56:34.066Z,57.07
2023-05-22T00:59:04.684Z,56.70
2023-05-22T01:01:39.324Z,56.97
2023-05-22T01:04:13.015Z,56.84
2023-05-22T01:06:43.898Z,56.78
2023-05-22T01:09:15.328Z,56.85
2023-05-22T01:11:59.349Z,56.68
2023-05-22T01:14:48.740Z,56.35
2023-05-22T01:17:27.396Z,56.92
2023-05-22T01:20:11.613Z,56.92
2023-05-22T01:23:06.682Z,56.96
2023-05-22T01:26:08.033Z,56.53
2023-05-22T01:28:44.979Z,56.31
2023-05-22T01:31:20.069Z,56.59
2023-05-22T01:33:57.844Z,56.33
2023-05-22T01:36:33.528Z,56.57
2023-05-22T01:39:06.938Z,56.51
2023-05-22T01:41:37.985Z,56.78
2023-05-22T01:44:08.706Z,56.78
2023-05-22T01:46:39.109Z,56.84
2023-05-22T01:49:11.519Z,56.57
2023-05-22T01:51:56.142Z,56.78
2023-05-22T01:54:36.054Z,56.79
2023-05-22T01:57:41.546Z,56.60
2023-05-22T02:00:18.173Z,56.06
2023-05-22T02:02:54.101Z,56.24
2023-05-22T02:05:27.106Z,56.38
2023-05-22T02:08:01.185Z,56.24
2023-05-22T02:10:34.075Z,56.28
2023-05-22T02:13:05.241Z,56.32
2023-05-22T02:15:36.092Z,56.31
2023-05-22T02:18:06.630Z,55.93
2023-05-22T02:20:38.573Z,55.85
2023-05-22T02:23:09.298Z,55.27
2023-05-22T02:25:39.765Z,55.49
2023-05-22T02:28:10.148Z,55.29
2023-05-22T02:30:40.940Z,56.31
2023-05-22T02:33:11.808Z,55.83
2023-05-22T02:35:42.370Z,56.11
2023-05-22T02:38:12.487Z,55.95
2023-05-22T02:40:43.112Z,56.21
2023-05-22T02:43:13.366Z,55.92
2023-05-22T02:45:44.115Z,56.07
2023-05-22T02:48:15.584Z,55.79
2023-05-22T02:50:46.684Z,55.78
2023-05-22T02:53:18.236Z,55.95
2023-05-22T02:55:49.458Z,56.07
2023-05-22T02:58:20.371Z,56.04
2023-05-22T03:00:50.781Z,55.54
2023-05-22T03:03:21.492Z,55.77
2023-05-22T03:05:52.501Z,55.87
2023-05-22T03:08:23.420Z,55.94
2023-05-22T03:10:53.694Z,55.96
2023-05-22T03:13:24.335Z,55.75
2023-05-22T03:15:55.257Z,55.77
2023-05-22T03:18:27.651Z,55.62
2023-05-22T03:20:59.145Z,55.51
2023-05-22T03:23:29.566Z,55.78
2023-05-22T03:26:02.990Z,55.36
2023-05-22T03:28:37.193Z,55.24
2023-05-22T03:31:08.207Z,55.63
2023-05-22T03:33:49.262Z,55.54
2023-05-22T03:36:21.619Z,55.50
2023-05-22T03:38:52.577Z,55.36
2023-05-22T03:41:23.125Z,54.96
2023-05-22T03:43:54.434Z,55.26
2023-05-22T03:46:26.683Z,55.00
2023-05-22T03:48:57.919Z,54.99
2023-05-22T03:51:28.232Z,55.17
2023-05-22T03:54:01.416Z,54.69
2023-05-22T03:56:31.773Z,54.79
2023-05-22T03:59:02.044Z,54.54
2023-05-22T04:01:32.444Z,54.74
2023-05-22T04:04:03.297Z,54.62
2023-05-22T04:06:36.982Z,54.36
2023-05-22T04:09:07.331Z,54.43
2023-05-22T04:11:38.207Z,54.37
2023-05-22T04:14:09.455Z,54.56
2023-05-22T04:16:39.924Z,54.06
2023-05-22T04:19:11.796Z,54.08
2023-05-22T04:21:42.181Z,54.19
2023-05-22T04:24:13.575Z,54.17
2023-05-22T04:26:44.247Z,53.97
2023-05-22T04:29:16.888Z,54.18
2023-05-22T04:31:47.303Z,53.69
2023-05-22T04:34:19.472Z,53.85
2023-05-22T04:36:50.507Z,53.72
2023-05-22T04:39:20.550Z,53.96
2023-05-22T04:41:53.031Z,53.71
2023-05-22T04:44:25.445Z,53.84
2023-05-22T04:46:55.820Z,53.81
2023-05-22T04:49:27.734Z,53.76
2023-05-22T04:51:59.867Z,53.46
2023-05-22T04:54:30.230Z,53.39
2023-05-22T04:57:00.608Z,53.14
2023-05-22T04:59:30.849Z,53.18
2023-05-22T05:02:01.102Z,53.17
2023-05-22T05:04:31.387Z,53.02
2023-05-22T05:07:01.872Z,53.18
2023-05-22T05:09:32.455Z,53.30
2023-05-22T05:12:04.404Z,53.03
2023-05-22T05:14:34.772Z,53.13
2023-05-22T05:17:05.088Z,53.05
2023-05-22T05:19:37.121Z,53.03
2023-05-22T05:22:08.030Z,53.03
2023-05-22T05:24:39.261Z,53.01
2023-05-22T05:27:09.830Z,53.17
2023-05-22T05:29:40.574Z,52.96
2023-05-22T05:32:26.548Z,52.66
2023-05-22T05:35:04.319Z,52.59
2023-05-22T05:37:48.105Z,52.65
2023-05-22T05:40:18.756Z,52.67
2023-05-22T05:42:53.726Z,52.70
2023-05-22T05:45:29.232Z,52.89
2023-05-22T05:48:00.304Z,52.92
2023-05-22T05:50:30.750Z,52.92
2023-05-22T05:53:01.146Z,52.53
2023-05-22T05:55:41.650Z,52.64
2023-05-22T05:58:12.006Z,52.80
2023-05-22T06:00:56.286Z,52.72
2023-05-22T06:03:28.070Z,52.36
2023-05-22T06:06:16.504Z,52.43
2023-05-22T06:09:13.441Z,52.50
2023-05-22T06:12:07.536Z,52.36
2023-05-22T06:14:38.028Z,52.36
2023-05-22T06:17:11.566Z,52.22
2023-05-22T06:19:44.711Z,52.34
2023-05-22T06:22:17.048Z,52.11
2023-05-22T06:24:50.756Z,52.07
2023-05-22T06:27:29.842Z,51.94
2023-05-22T06:30:00.312Z,52.03
2023-05-22T06:32:34.473Z,51.88
2023-05-22T06:35:05.902Z,51.61
2023-05-22T06:37:37.996Z,51.73
2023-05-22T06:40:10.392Z,51.21
2023-05-22T06:42:51.004Z,51.57
2023-05-22T06:45:35.708Z,51.53
2023-05-22T06:48:23.537Z,51.41
2023-05-22T06:51:03.997Z,51.44
2023-05-22T06:53:34.477Z,51.68
2023-05-22T06:56:05.703Z,51.58
2023-05-22T06:58:54.410Z,51.08
2023-05-22T07:01:31.684Z,51.09
2023-05-22T07:04:12.180Z,50.61
2023-05-22T07:07:02.263Z,50.77
2023-05-22T07:09:32.674Z,50.43
2023-05-22T07:12:03.025Z,50.39
2023-05-22T07:14:34.082Z,50.12
2023-05-22T07:17:05.494Z,50.15
2023-05-22T07:19:41.403Z,50.38
2023-05-22T07:22:12.263Z,50.19
2023-05-22T07:24:43.029Z,50.00
2023-05-22T07:27:15.281Z,49.76
2023-05-22T07:29:45.709Z,50.04
2023-05-22T07:32:16.275Z,50.00
2023-05-22T07:34:47.359Z,49.88
2023-05-22T07:37:18.284Z,50.10
2023-05-22T07:39:53.858Z,50.13
2023-05-22T07:42:24.207Z,50.05
2023-05-22T07:44:57.356Z,50.30
2023-05-22T07:47:27.892Z,50.21
2023-05-22T07:49:58.370Z,50.33
2023-05-22T07:52:28.695Z,50.14
2023-05-22T07:54:59.419Z,50.26
2023-05-22T07:57:32.200Z,50.22
2023-05-22T08:00:16.377Z,50.30
2023-05-22T08:02:46.948Z,50.46
2023-05-22T08:05:17.473Z,50.45
2023-05-22T08:07:47.985Z,50.52
2023-05-22T08:10:19.620Z,50.30
2023-05-22T08:12:49.945Z,50.42
2023-05-22T08:15:20.375Z,50.49
2023-05-22T08:17:51.132Z,50.34
2023-05-22T08:20:22.607Z,50.40
2023-05-22T08:22:53.117Z,50.55
2023-05-22T08:25:23.703Z,50.53
2023-05-22T08:27:54.499Z,50.61
2023-05-22T08:30:24.988Z,50.66
2023-05-22T08:32:55.359Z,50.78
2023-05-22T08:35:25.674Z,50.74
2023-05-22T08:37:56.050Z,50.90
2023-05-22T08:40:32.102Z,50.87
2023-05-22T08:43:02.636Z,51.03
2023-05-22T08:45:36.458Z,50.81
2023-05-22T08:48:08.811Z,50.59
2023-05-22T08:50:47.178Z,50.75
2023-05-22T08:53:20.446Z,50.48
2023-05-22T08:55:51.060Z,50.38
2023-05-22T08:58:21.942Z,50.39
2023-05-22T09:00:52.664Z,50.31
2023-05-22T09:03:23.964Z,50.21
2023-05-22T09:05:54.731Z,50.31
2023-05-22T09:08:24.923Z,50.24
2023-05-22T09:10:57.425Z,50.05
2023-05-22T09:13:34.424Z,50.15
2023-05-22T09:16:12.147Z,50.11
2023-05-22T09:18:44.511Z,50.31
2023-05-22T09:21:29.427Z,50.50
2023-05-22T09:24:04.097Z,50.65
2023-05-22T09:26:36.049Z,50.45
2023-05-22T09:29:08.416Z,50.91
2023-05-22T09:31:46.800Z,50.70
2023-05-22T09:34:20.048Z,51.12
2023-05-22T09:36:52.293Z,51.53
2023-05-22T09:39:23.450Z,52.33
2023-05-22T09:41:54.013Z,52.59
2023-05-22T09:44:29.329Z,53.42
2023-05-22T09:46:59.720Z,53.38
2023-05-22T09:49:30.571Z,53.37
2023-05-22T09:52:01.354Z,53.92
2023-05-22T09:54:37.014Z,54.36
2023-05-22T09:57:12.038Z,54.32
2023-05-22T09:59:45.462Z,54.49
2023-05-22T10:02:16.290Z,54.53
2023-05-22T10:04:50.540Z,54.76
2023-05-22T10:07:37.172Z,55.14
2023-05-22T10:10:14.624Z,55.43
2023-05-22T10:12:58.987Z,55.35
2023-05-22T10:15:29.713Z,55.44
2023-05-22T10:18:01.916Z,55.58
2023-05-22T10:20:33.317Z,55.72
2023-05-22T10:23:06.575Z,55.54
2023-05-22T10:25:40.321Z,55.53
2023-05-22T10:28:12.069Z,55.62
2023-05-22T10:31:06.182Z,55.43
2023-05-22T10:34:04.285Z,55.49
2023-05-22T10:37:16.470Z,55.13
2023-05-22T10:40:07.009Z,55.34
2023-05-22T10:42:39.733Z,55.44
2023-05-22T10:45:10.833Z,55.33
2023-05-22T10:47:40.954Z,55.31
2023-05-22T10:50:13.532Z,55.26
2023-05-22T10:52:44.043Z,55.53
2023-05-22T10:55:14.512Z,55.39
2023-05-22T10:57:45.338Z,55.38
2023-05-22T11:00:18.625Z,55.48
2023-05-22T11:02:54.018Z,55.49
2023-05-22T11:05:28.257Z,55.25
2023-05-22T11:08:34.907Z,55.58
2023-05-22T11:11:15.403Z,55.84
2023-05-22T11:13:46.186Z,55.71
2023-05-22T11:16:18.993Z,55.67
2023-05-22T11:18:49.518Z,55.92
2023-05-22T11:21:19.859Z,55.96
2023-05-22T11:23:50.323Z,56.21
2023-05-22T11:26:28.027Z,56.30
2023-05-22T11:28:59.069Z,56.51
2023-05-22T11:31:30.040Z,56.61
2023-05-22T11:34:00.319Z,56.84
2023-05-22T11:36:31.559Z,57.11
2023-05-22T11:39:02.576Z,57.08
2023-05-22T11:41:36.801Z,56.96
2023-05-22T11:44:11.367Z,57.25
2023-05-22T11:46:42.339Z,57.22
2023-05-22T11:49:24.163Z,57.07
2023-05-22T11:51:54.883Z,56.80
2023-05-22T11:54:26.084Z,56.62
2023-05-22T11:56:56.556Z,56.65
2023-05-22T11:59:26.893Z,56.66
2023-05-22T12:01:57.417Z,56.99
2023-05-22T12:04:28.050Z,56.72
2023-05-22T12:06:58.633Z,56.82
2023-05-22T12:09:31.889Z,56.54
2023-05-22T12:12:02.768Z,56.59
2023-05-22T12:14:34.619Z,56.64
2023-05-22T12:17:25.292Z,56.92
2023-05-22T12:19:56.331Z,56.92
2023-05-22T12:22:28.812Z,56.76
2023-05-22T12:24:59.197Z,56.38
2023-05-22T12:27:34.524Z,56.34
2023-05-22T12:30:13.027Z,56.20
2023-05-22T12:32:43.767Z,56.33
2023-05-22T12:35:21.400Z,56.15
2023-05-22T12:37:53.603Z,56.18
2023-05-22T12:40:24.026Z,56.44
2023-05-22T12:42:54.710Z,56.55
2023-05-22T12:45:46.861Z,56.38
2023-05-22T12:48:18.452Z,56.52
2023-05-22T12:50:49.485Z,56.63
2023-05-22T12:53:19.776Z,56.52
2023-05-22T12:55:50.307Z,56.86
2023-05-22T12:58:20.720Z,56.83
2023-05-22T13:00:51.783Z,56.92
2023-05-22T13:03:22.631Z,57.10
2023-05-22T13:05:53.277Z,57.29
2023-05-22T13:08:24.693Z,57.23
2023-05-22T13:10:55.969Z,57.52
2023-05-22T13:13:25.969Z,57.73
2023-05-22T13:15:56.333Z,57.64
2023-05-22T13:18:26.501Z,57.53
2023-05-22T13:20:58.834Z,57.73
2023-05-22T13:23:29.575Z,57.73
2023-05-22T13:26:00.302Z,58.08
2023-05-22T13:28:30.734Z,57.79
2023-05-22T13:31:01.341Z,58.16
2023-05-22T13:33:31.811Z,58.14
2023-05-22T13:36:02.160Z,58.30
2023-05-22T13:38:32.484Z,58.25
2023-05-22T13:41:02.707Z,58.11
2023-05-22T13:43:33.135Z,57.79
2023-05-22T13:46:03.418Z,57.91
2023-05-22T13:48:33.662Z,58.08
2023-05-22T13:51:04.178Z,58.20
2023-05-22T13:53:34.590Z,57.97
2023-05-22T13:56:04.966Z,57.92
2023-05-22T13:58:35.376Z,57.99
2023-05-22T14:01:05.729Z,58.27
2023-05-22T14:03:36.240Z,58.24
2023-05-22T14:06:06.871Z,58.25
2023-05-22T14:08:37.496Z,58.80
2023-05-22T14:11:07.830Z,58.96
2023-05-22T14:13:38.627Z,59.23
2023-05-22T14:16:09.023Z,59.62
2023-05-22T14:18:39.312Z,59.66
2023-05-22T14:21:09.646Z,59.87
2023-05-22T14:23:39.883Z,60.28
2023-05-22T14:26:10.996Z,60.23
2023-05-22T14:28:42.334Z,60.20
2023-05-22T14:31:12.957Z,60.02
2023-05-22T14:33:43.268Z,59.89
2023-05-22T14:36:13.661Z,59.83
2023-05-22T14:38:43.852Z,59.64
2023-05-22T14:41:14.324Z,59.49
2023-05-22T14:43:44.679Z,59.33
2023-05-22T14:46:15.203Z,59.18
2023-05-22T14:48:45.532Z,59.07
2023-05-22T14:51:15.909Z,58.73
2023-05-22T14:53:46.610Z,58.66
2023-05-22T14:56:16.873Z,58.60
2023-05-22T14:58:47.320Z,58.71
2023-05-22T15:01:17.685Z,58.81
2023-05-22T15:03:48.081Z,58.95
2023-05-22T15:06:18.463Z,59.17
2023-05-22T15:08:49.345Z,59.28
2023-05-22T15:11:19.812Z,59.55
2023-05-22T15:13:50.443Z,59.51
2023-05-22T15:16:20.924Z,59.62
2023-05-22T15:18:51.545Z,59.79
2023-05-22T15:21:22.327Z,60.30
2023-05-22T15:23:53.643Z,60.14
2023-05-22T15:26:23.971Z,59.87
2023-05-22T15:28:54.260Z,60.02
2023-05-22T15:31:24.507Z,59.31
2023-05-22T15:33:54.940Z,58.91
2023-05-22T15:36:26.074Z,58.64
2023-05-22T15:38:56.051Z,58.19
2023-05-22T15:41:26.238Z,57.93
2023-05-22T15:43:56.870Z,57.93
2023-05-22T15:46:27.235Z,57.86
2023-05-22T15:48:57.535Z,57.90
2023-05-22T15:51:27.789Z,57.69
2023-05-22T15:53:58.072Z,57.65
2023-05-22T15:56:28.573Z,57.92
2023-05-22T15:58:59.025Z,58.11
2023-05-22T16:01:30.190Z,57.89
2023-05-22T16:04:00.558Z,57.72
2023-05-22T16:06:30.994Z,57.57
2023-05-22T16:09:01.520Z,57.33
2023-05-22T16:11:32.107Z,57.49
2023-05-22T16:14:02.488Z,57.56
2023-05-22T16:16:33.947Z,57.36
2023-05-22T16:19:04.233Z,57.54
2023-05-22T16:21:34.733Z,57.78
2023-05-22T16:24:05.943Z,57.96
2023-05-22T16:26:36.413Z,57.95
2023-05-22T16:29:08.490Z,57.99
2023-05-22T16:31:39.077Z,58.05
2023-05-22T16:34:09.508Z,58.16
2023-05-22T16:36:40.093Z,58.09
2023-05-22T16:39:10.271Z,58.00
2023-05-22T16:41:40.823Z,58.21
2023-05-22T16:44:11.416Z,58.20
2023-05-22T16:46:41.956Z,58.26
2023-05-22T16:49:12.408Z,58.47
2023-05-22T16:51:42.847Z,58.51
2023-05-22T16:54:13.271Z,58.45
2023-05-22T16:56:43.763Z,58.67
2023-05-22T16:59:14.294Z,58.94
2023-05-22T17:01:45.697Z,58.67
2023-05-22T17:04:18.276Z,58.31
2023-05-22T17:06:48.970Z,58.39
2023-05-22T17:09:19.284Z,58.31
2023-05-22T17:11:49.865Z,58.56
2023-05-22T17:14:20.032Z,58.42
2023-05-22T17:16:51.558Z,58.22
2023-05-22T17:19:21.874Z,58.63
2023-05-22T17:21:52.338Z,58.55
2023-05-22T17:24:22.769Z,58.42
2023-05-22T17:26:53.132Z,58.57
2023-05-22T17:29:24.478Z,58.51
2023-05-22T17:31:55.342Z,58.66
2023-05-22T17:34:26.634Z,58.59
2023-05-22T17:36:56.944Z,58.61
2023-05-22T17:39:27.252Z,58.41
2023-05-22T17:41:59.052Z,58.53
2023-05-22T17:44:30.621Z,58.36
2023-05-22T17:47:01.006Z,58.52
2023-05-22T17:49:31.223Z,58.33
2023-05-22T17:52:01.526Z,58.59
2023-05-22T17:54:38.177Z,58.56
2023-05-22T17:57:08.646Z,58.56
2023-05-22T17:59:40.200Z,58.74
2023-05-22T18:02:11.888Z,58.64
2023-05-22T18:04:41.823Z,58.71
2023-05-22T18:07:11.958Z,58.91
2023-05-22T18:09:42.243Z,58.66
2023-05-22T18:12:27.864Z,58.75
2023-05-22T18:15:01.056Z,58.72
2023-05-22T18:17:31.403Z,58.77
2023-05-22T18:20:03.072Z,58.83
2023-05-22T18:22:33.421Z,58.73
2023-05-22T18:25:03.805Z,58.81
2023-05-22T18:27:34.165Z,58.75
2023-05-22T18:30:04.978Z,58.72
2023-05-22T18:32:35.476Z,58.79
2023-05-22T18:35:06.709Z,58.74
2023-05-22T18:37:37.717Z,58.89
2023-05-22T18:40:11.298Z,59.04
2023-05-22T18:42:41.937Z,58.90
2023-05-22T18:45:13.881Z,59.11
2023-05-22T18:47:44.226Z,59.27
2023-05-22T18:50:14.979Z,59.08
2023-05-22T18:52:45.680Z,59.24
2023-05-22T18:55:16.151Z,59.23
2023-05-22T18:57:46.521Z,58.91
2023-05-22T19:00:17.079Z,59.09
2023-05-22T19:02:49.706Z,59.34
2023-05-22T19:05:20.031Z,59.31
2023-05-22T19:07:50.310Z,59.40
2023-05-22T19:10:20.715Z,59.24
2023-05-22T19:12:51.004Z,59.17
2023-05-22T19:15:21.387Z,59.28
2023-05-22T19:17:51.759Z,58.99
2023-05-22T19:20:22.028Z,59.12
2023-05-22T19:22:53.739Z,59.07
2023-05-22T19:25:24.068Z,59.36
2023-05-22T19:27:54.432Z,59.20
2023-05-22T19:30:24.757Z,59.43
2023-05-22T19:32:58.132Z,59.25
2023-05-22T19:35:28.421Z,59.31
2023-05-22T19:37:58.743Z,59.46
2023-05-22T19:40:29.175Z,59.51
2023-05-22T19:42:59.543Z,59.70
2023-05-22T19:45:30.525Z,59.62
2023-05-22T19:48:00.969Z,59.83
2023-05-22T19:50:31.356Z,59.59
2023-05-22T19:53:02.086Z,59.68
2023-05-22T19:55:34.539Z,59.49
2023-05-22T19:58:05.245Z,59.47
2023-05-22T20:00:35.928Z,59.43
2023-05-22T20:03:06.472Z,59.63
2023-05-22T20:05:36.793Z,59.57
2023-05-22T20:08:07.060Z,59.74
2023-05-22T20:10:37.633Z,59.67
2023-05-22T20:13:08.481Z,59.42
2023-05-22T20:15:40.142Z,59.41
2023-05-22T20:18:13.032Z,59.60
2023-05-22T20:20:43.551Z,58.35
2023-05-22T20:23:13.793Z,58.00
2023-05-22T20:25:44.220Z,58.11
2023-05-22T20:28:14.589Z,57.83
2023-05-22T20:30:44.874Z,58.29
2023-05-22T20:33:16.248Z,58.05
2023-05-22T20:35:46.656Z,57.50
2023-05-22T20:38:16.980Z,57.28
2023-05-22T20:40:50.657Z,57.69
2023-05-22T20:43:21.451Z,57.46
2023-05-22T20:45:54.332Z,57.08
2023-05-22T20:48:24.709Z,56.46
2023-05-22T20:50:55.076Z,56.11
2023-05-22T20:53:26.810Z,56.06
2023-05-22T20:55:57.136Z,55.93
2023-05-22T20:58:27.516Z,56.27
2023-05-22T21:00:58.399Z,56.40
2023-05-22T21:03:28.754Z,56.33
2023-05-22T21:05:58.933Z,56.09
2023-05-22T21:08:29.410Z,55.80
2023-05-22T21:10:59.663Z,55.46
2023-05-22T21:13:29.997Z,55.12
2023-05-22T21:16:00.335Z,55.08
2023-05-22T21:18:30.643Z,54.49
2023-05-22T21:21:00.884Z,54.47
2023-05-22T21:23:31.259Z,54.23
2023-05-22T21:26:04.952Z,54.20
2023-05-22T21:28:35.434Z,53.99
2023-05-22T21:31:05.901Z,53.67
2023-05-22T21:33:36.406Z,53.73
2023-05-22T21:36:07.331Z,53.76
2023-05-22T21:38:37.613Z,53.78
2023-05-22T21:41:08.037Z,54.07
2023-05-22T21:43:38.390Z,53.87
2023-05-22T21:46:08.775Z,53.76
2023-05-22T21:48:39.311Z,53.90
2023-05-22T21:51:09.805Z,53.85
2023-05-22T21:53:40.203Z,53.98
2023-05-22T21:56:11.222Z,54.19
2023-05-22T21:58:41.509Z,54.17
2023-05-22T22:01:12.706Z,54.45
2023-05-22T22:03:44.927Z,54.45
2023-05-22T22:06:15.497Z,54.22
2023-05-22T22:08:45.901Z,54.39
2023-05-22T22:11:16.545Z,54.40
2023-05-22T22:13:46.924Z,54.22
2023-05-22T22:16:17.680Z,54.11
2023-05-22T22:18:51.409Z,53.94
2023-05-22T22:21:21.772Z,54.01
2023-05-22T22:23:52.617Z,54.47
2023-05-22T22:26:24.356Z,55.20
2023-05-22T22:28:54.949Z,54.25
2023-05-22T22:31:25.794Z,54.46
2023-05-22T22:33:56.128Z,54.60
2023-05-22T22:36:26.484Z,54.48
2023-05-22T22:38:56.793Z,54.67
2023-05-22T22:41:27.250Z,54.67
2023-05-22T22:43:57.720Z,54.61
2023-05-22T22:46:28.964Z,54.58
2023-05-22T22:48:59.086Z,54.76
2023-05-22T22:51:54.120Z,55.58
2023-05-22T22:54:24.448Z,54.87
2023-05-22T22:56:56.581Z,54.79
2023-05-22T22:59:26.962Z,55.05
2023-05-22T23:01:57.327Z,55.17
2023-05-22T23:04:27.794Z,55.09
2023-05-22T23:06:59.897Z,55.68
2023-05-22T23:09:30.479Z,55.25
2023-05-22T23:12:00.702Z,55.34
2023-05-22T23:14:31.242Z,55.43
2023-05-22T23:17:01.639Z,55.33
2023-05-22T23:19:32.241Z,55.26
2023-05-22T23:22:02.725Z,54.99
2023-05-22T23:24:33.044Z,54.83
2023-05-22T23:27:03.822Z,54.79
2023-05-22T23:29:34.574Z,54.83
2023-05-22T23:32:04.946Z,54.96
2023-05-22T23:34:35.440Z,55.01
2023-05-22T23:37:05.845Z,55.10
2023-05-22T23:39:36.203Z,54.83
2023-05-22T23:42:07.789Z,54.97
2023-05-22T23:44:39.149Z,54.94
2023-05-22T23:47:09.994Z,54.95
2023-05-22T23:49:40.268Z,54.73
2023-05-22T23:52:10.616Z,54.95
2023-05-22T23:54:40.940Z,54.67
2023-05-22T23:57:11.548Z,54.85
2023-05-22T23:59:42.884Z,55.27
